createdAt,value
2022-09-07T00:01:22.427Z,25.23
2022-09-07T00:03:50.971Z,25.27
2022-09-07T00:06:19.460Z,25.30
2022-09-07T00:08:47.995Z,25.34
2022-09-07T00:11:21.185Z,25.38
2022-09-07T00:13:51.453Z,25.42
2022-09-07T00:16:24.149Z,25.44
2022-09-07T00:18:56.624Z,25.47
2022-09-07T00:21:25.670Z,25.50
2022-09-07T00:23:55.297Z,25.55
2022-09-07T00:26:26.825Z,25.60
2022-09-07T00:28:59.838Z,25.64
2022-09-07T00:31:29.488Z,25.69
2022-09-07T00:34:01.121Z,25.73
2022-09-07T00:36:30.075Z,25.81
2022-09-07T00:38:59.622Z,25.85
2022-09-07T00:41:29.537Z,25.88
2022-09-07T00:44:00.749Z,25.92
2022-09-07T00:46:33.185Z,25.96
2022-09-07T00:49:10.288Z,26.01
2022-09-07T00:52:01.985Z,26.05
2022-09-07T00:54:41.220Z,26.08
2022-09-07T00:57:11.089Z,26.11
2022-09-07T00:59:45.602Z,26.15
2022-09-07T01:02:17.600Z,26.21
2022-09-07T01:04:51.001Z,26.26
2022-09-07T01:07:20.560Z,26.29
2022-09-07T01:09:49.574Z,26.34
2022-09-07T01:12:18.142Z,26.35
2022-09-07T01:14:51.643Z,26.39
2022-09-07T01:17:23.258Z,26.43
2022-09-07T01:20:08.986Z,26.48
2022-09-07T01:22:55.552Z,26.51
2022-09-07T01:25:42.938Z,26.57
2022-09-07T01:28:18.253Z,26.59
2022-09-07T01:31:19.901Z,26.61
2022-09-07T01:34:01.730Z,26.63
2022-09-07T01:36:35.893Z,26.68
2022-09-07T01:39:06.669Z,26.71
2022-09-07T01:42:02.708Z,26.76
2022-09-07T01:45:12.507Z,26.81
2022-09-07T01:47:44.458Z,26.87
2022-09-07T01:50:24.948Z,26.94
2022-09-07T01:53:07.902Z,26.98
2022-09-07T01:55:45.731Z,27.01
2022-09-07T01:58:26.452Z,27.04
2022-09-07T02:01:02.983Z,27.07
2022-09-07T02:03:49.307Z,27.14
2022-09-07T02:06:21.180Z,27.17
2022-09-07T02:09:01.414Z,27.18
2022-09-07T02:11:39.767Z,27.22
2022-09-07T02:14:30.608Z,27.26
2022-09-07T02:17:09.584Z,27.30
2022-09-07T02:19:48.292Z,27.34
2022-09-07T02:22:22.135Z,27.38
2022-09-07T02:24:55.540Z,27.41
2022-09-07T02:27:39.962Z,27.44
2022-09-07T02:30:09.316Z,27.50
2022-09-07T02:32:38.030Z,27.52
2022-09-07T02:35:07.715Z,27.58
2022-09-07T02:37:38.066Z,27.62
2022-09-07T02:40:07.181Z,27.65
2022-09-07T02:42:37.571Z,27.69
2022-09-07T02:45:09.685Z,27.72
2022-09-07T02:47:41.279Z,27.78
2022-09-07T02:50:31.857Z,27.83
2022-09-07T02:53:23.388Z,27.87
2022-09-07T02:56:10.837Z,27.93
2022-09-07T02:59:09.327Z,27.94
2022-09-07T03:02:06.790Z,27.98
2022-09-07T03:04:38.381Z,28.03
2022-09-07T03:07:44.091Z,28.07
2022-09-07T03:10:15.157Z,28.09
2022-09-07T03:12:49.438Z,28.12
2022-09-07T03:15:21.829Z,28.16
2022-09-07T03:17:50.667Z,28.21
2022-09-07T03:20:20.183Z,28.23
2022-09-07T03:22:50.426Z,28.27
2022-09-07T03:25:20.305Z,28.30
2022-09-07T03:27:48.932Z,28.33
2022-09-07T03:30:17.547Z,28.36
2022-09-07T03:32:46.142Z,28.41
2022-09-07T03:35:15.562Z,28.43
2022-09-07T03:37:44.225Z,28.47
2022-09-07T03:40:15.330Z,28.53
2022-09-07T03:42:44.132Z,28.56
2022-09-07T03:45:12.983Z,28.61
2022-09-07T03:47:42.228Z,28.63
2022-09-07T03:50:11.072Z,28.66
2022-09-07T03:52:39.949Z,28.71
2022-09-07T03:55:08.925Z,28.74
2022-09-07T03:57:37.569Z,28.76
2022-09-07T04:00:06.796Z,28.78
2022-09-07T04:02:35.416Z,28.81
2022-09-07T04:05:04.028Z,28.86
2022-09-07T04:07:32.627Z,28.88
2022-09-07T04:10:01.134Z,28.95
2022-09-07T04:12:30.006Z,28.99
2022-09-07T04:14:58.583Z,29.03
2022-09-07T04:17:27.130Z,29.08
2022-09-07T04:19:55.914Z,29.12
2022-09-07T04:22:24.610Z,29.18
2022-09-07T04:24:53.125Z,29.21
2022-09-07T04:27:21.740Z,29.21
2022-09-07T04:29:50.297Z,29.23
2022-09-07T04:32:18.884Z,29.23
2022-09-07T04:34:47.549Z,29.23
2022-09-07T04:37:16.064Z,29.26
2022-09-07T04:39:44.624Z,29.29
2022-09-07T04:42:13.459Z,29.32
2022-09-07T04:44:42.005Z,29.34
2022-09-07T04:47:10.950Z,29.37
2022-09-07T04:49:39.616Z,29.37
2022-09-07T04:52:08.281Z,29.37
2022-09-07T04:54:36.838Z,29.37
2022-09-07T04:57:05.443Z,29.38
2022-09-07T04:59:34.069Z,29.40
2022-09-07T05:02:02.696Z,29.44
2022-09-07T05:04:31.264Z,29.48
2022-09-07T05:06:59.830Z,29.53
2022-09-07T05:09:28.491Z,29.57
2022-09-07T05:11:57.172Z,29.64
2022-09-07T05:14:25.805Z,29.66
2022-09-07T05:16:54.314Z,29.68
2022-09-07T05:19:22.887Z,29.74
2022-09-07T05:21:51.404Z,29.72
2022-09-07T05:24:20.208Z,29.74
2022-09-07T05:26:48.695Z,29.76
2022-09-07T05:32:06.025Z,29.80
2022-09-07T05:34:34.602Z,29.85
2022-09-07T05:37:03.850Z,29.90
2022-09-07T05:39:32.729Z,29.92
2022-09-07T05:42:01.314Z,29.97
2022-09-07T05:44:45.740Z,29.98
2022-09-07T05:47:15.396Z,30.01
2022-09-07T05:49:44.132Z,30.05
2022-09-07T05:52:12.968Z,30.05
2022-09-07T05:54:41.627Z,30.08
2022-09-07T05:57:13.649Z,30.11
2022-09-07T05:59:42.333Z,30.13
2022-09-07T06:02:18.631Z,30.17
2022-09-07T06:04:48.667Z,30.19
2022-09-07T06:07:22.199Z,30.19
2022-09-07T06:12:39.981Z,30.18
2022-09-07T06:15:09.264Z,30.19
2022-09-07T06:17:37.805Z,30.21
2022-09-07T06:20:07.898Z,30.22
2022-09-07T06:22:39.886Z,30.23
2022-09-07T06:25:08.712Z,30.24
2022-09-07T06:27:37.298Z,30.28
2022-09-07T06:30:06.574Z,30.28
2022-09-07T06:35:11.312Z,30.31
2022-09-07T06:37:40.251Z,30.32
2022-09-07T06:40:09.999Z,30.33
2022-09-07T06:42:39.280Z,30.36
2022-09-07T06:45:08.525Z,30.37
2022-09-07T06:47:37.796Z,30.37
2022-09-07T06:50:06.634Z,30.41
2022-09-07T06:55:29.208Z,30.51
2022-09-07T06:57:57.879Z,30.57
2022-09-07T07:00:26.421Z,30.60
2022-09-07T07:02:55.142Z,30.60
2022-09-07T07:05:23.684Z,30.60
2022-09-07T07:07:52.271Z,30.58
2022-09-07T07:10:24.618Z,30.56
2022-09-07T07:12:58.469Z,30.56
2022-09-07T07:15:31.860Z,30.53
2022-09-07T07:18:13.673Z,30.49
2022-09-07T07:20:48.790Z,30.44
2022-09-07T07:23:17.415Z,30.42
2022-09-07T07:25:46.169Z,30.42
2022-09-07T07:31:09.093Z,30.39
2022-09-07T07:33:39.751Z,30.40
2022-09-07T07:36:19.410Z,30.38
2022-09-07T07:39:05.336Z,30.37
2022-09-07T07:44:23.101Z,30.36
2022-09-07T07:46:52.548Z,30.38
2022-09-07T07:49:21.377Z,30.36
2022-09-07T07:54:38.549Z,30.32
2022-09-07T07:57:07.917Z,30.28
2022-09-07T07:59:37.041Z,30.27
2022-09-07T08:02:11.489Z,30.25
2022-09-07T08:04:40.132Z,30.20
2022-09-07T08:07:11.022Z,30.17
2022-09-07T08:09:45.218Z,30.12
2022-09-07T08:12:17.702Z,30.13
2022-09-07T08:14:48.127Z,30.10
2022-09-07T08:17:18.854Z,30.11
2022-09-07T08:19:47.338Z,30.06
2022-09-07T08:22:15.785Z,30.04
2022-09-07T08:24:44.231Z,30.03
2022-09-07T08:27:12.785Z,30.01
2022-09-07T08:29:41.283Z,30.00
2022-09-07T08:32:09.758Z,29.95
2022-09-07T08:34:38.463Z,29.93
2022-09-07T08:37:06.950Z,29.91
2022-09-07T08:39:35.510Z,29.88
2022-09-07T08:42:09.662Z,29.84
2022-09-07T08:44:52.379Z,29.84
2022-09-07T08:47:54.178Z,29.80
2022-09-07T08:50:39.076Z,29.79
2022-09-07T08:53:14.830Z,29.78
2022-09-07T08:55:52.229Z,29.76
2022-09-07T08:58:48.240Z,29.76
2022-09-07T09:01:34.588Z,29.73
2022-09-07T09:04:21.100Z,29.73
2022-09-07T09:07:32.101Z,29.71
2022-09-07T09:10:29.493Z,29.68
2022-09-07T09:13:20.688Z,29.64
2022-09-07T09:15:55.153Z,29.64
2022-09-07T09:18:23.649Z,29.61
2022-09-07T09:21:02.358Z,29.61
2022-09-07T09:23:40.202Z,29.60
2022-09-07T09:26:12.773Z,29.60
2022-09-07T09:28:41.702Z,29.58
2022-09-07T09:31:37.571Z,29.60
2022-09-07T09:34:08.675Z,29.58
2022-09-07T09:36:43.549Z,29.57
2022-09-07T09:39:37.703Z,29.56
2022-09-07T09:42:12.008Z,29.52
2022-09-07T09:44:41.342Z,29.50
2022-09-07T09:47:30.632Z,29.48
2022-09-07T09:50:06.355Z,29.44
2022-09-07T09:52:47.570Z,29.43
2022-09-07T09:55:35.509Z,29.41
2022-09-07T10:01:24.809Z,29.34
2022-09-07T10:06:22.496Z,29.29
2022-09-07T10:08:56.667Z,29.27
2022-09-07T10:14:43.794Z,29.22
2022-09-07T10:17:44.865Z,29.21
2022-09-07T10:20:20.987Z,29.18
2022-09-07T10:22:55.539Z,29.16
2022-09-07T10:25:33.301Z,29.13
2022-09-07T10:28:07.614Z,29.10
2022-09-07T10:31:32.777Z,29.07
2022-09-07T10:34:27.238Z,29.05
2022-09-07T10:37:10.814Z,29.03
2022-09-07T10:39:50.019Z,29.01
2022-09-07T10:42:24.547Z,28.99
2022-09-07T10:45:12.823Z,28.96
2022-09-07T10:47:50.236Z,28.93
2022-09-07T10:50:52.924Z,28.90
2022-09-07T10:53:42.128Z,28.87
2022-09-07T10:56:28.029Z,28.83
2022-09-07T10:59:03.277Z,28.81
2022-09-07T11:01:55.512Z,28.78
2022-09-07T11:04:47.838Z,28.75
2022-09-07T11:07:33.691Z,28.72
2022-09-07T11:10:05.121Z,28.69
2022-09-07T11:12:39.095Z,28.66
2022-09-07T11:15:16.694Z,28.63
2022-09-07T11:17:52.956Z,28.61
2022-09-07T11:20:39.614Z,28.59
2022-09-07T11:23:20.825Z,28.57
2022-09-07T11:26:12.938Z,28.56
2022-09-07T11:32:04.663Z,28.49
2022-09-07T11:34:59.258Z,28.45
2022-09-07T11:37:39.936Z,28.41
2022-09-07T11:40:15.501Z,28.37
2022-09-07T11:42:49.819Z,28.33
2022-09-07T11:45:37.070Z,28.30
2022-09-07T11:48:21.226Z,28.26
2022-09-07T11:50:56.480Z,28.23
2022-09-07T11:53:39.498Z,28.19
2022-09-07T11:56:23.428Z,28.16
2022-09-07T11:58:58.030Z,28.11
2022-09-07T12:01:55.573Z,28.09
2022-09-07T12:04:55.536Z,28.05
2022-09-07T12:07:42.329Z,28.04
2022-09-07T12:10:31.773Z,28.00
2022-09-07T12:13:00.293Z,27.98
2022-09-07T12:15:34.846Z,27.95
2022-09-07T12:18:25.819Z,27.93
2022-09-07T12:20:54.494Z,27.91
2022-09-07T12:23:46.959Z,27.89
2022-09-07T12:26:39.844Z,27.86
2022-09-07T12:29:22.037Z,27.85
2022-09-07T12:32:52.797Z,27.84
2022-09-07T12:34:52.749Z,27.83
2022-09-07T12:37:39.558Z,27.82
2022-09-07T12:40:33.438Z,27.81
2022-09-07T12:43:14.236Z,27.79
2022-09-07T12:45:43.194Z,27.79
2022-09-07T12:48:17.397Z,27.79
2022-09-07T12:50:59.986Z,27.78
2022-09-07T12:53:43.193Z,27.78
2022-09-07T12:56:35.109Z,27.76
2022-09-07T12:59:19.764Z,27.76
2022-09-07T13:01:57.705Z,27.76
2022-09-07T13:04:56.369Z,27.75
2022-09-07T13:07:57.355Z,27.76
2022-09-07T13:10:32.092Z,27.74
2022-09-07T13:16:29.075Z,27.72
2022-09-07T13:18:57.620Z,27.70
2022-09-07T13:21:51.078Z,27.70
2022-09-07T13:27:32.254Z,27.68
2022-09-07T13:30:07.161Z,27.66
2022-09-07T13:35:27.327Z,27.62
2022-09-07T13:38:04.792Z,27.61
2022-09-07T13:40:41.141Z,27.61
2022-09-07T13:43:18.842Z,27.58
2022-09-07T13:45:56.582Z,27.57
2022-09-07T13:48:43.091Z,27.55
2022-09-07T13:51:26.010Z,27.54
2022-09-07T13:53:57.655Z,27.53
2022-09-07T13:56:34.431Z,27.52
2022-09-07T13:59:20.634Z,27.52
2022-09-07T14:01:50.697Z,27.52
2022-09-07T14:04:44.566Z,27.52
2022-09-07T14:07:23.983Z,27.51
2022-09-07T14:10:13.389Z,27.51
2022-09-07T14:12:50.083Z,27.50
2022-09-07T14:15:23.323Z,27.48
2022-09-07T14:18:03.387Z,27.48
2022-09-07T14:20:33.524Z,27.46
2022-09-07T14:23:02.036Z,27.44
2022-09-07T14:26:16.007Z,27.44
2022-09-07T14:28:38.591Z,27.43
2022-09-07T14:31:11.415Z,27.42
2022-09-07T14:33:44.861Z,27.39
2022-09-07T14:36:39.458Z,27.38
2022-09-07T14:39:06.866Z,27.37
2022-09-07T14:41:39.561Z,27.37
2022-09-07T14:44:08.026Z,27.36
2022-09-07T14:46:37.911Z,27.36
2022-09-07T14:49:24.420Z,27.36
2022-09-07T14:51:55.365Z,27.35
2022-09-07T14:54:35.284Z,27.35
2022-09-07T14:57:08.267Z,27.35
2022-09-07T14:59:49.226Z,27.34
2022-09-07T15:02:20.939Z,27.35
2022-09-07T15:05:10.977Z,27.34
2022-09-07T15:07:41.911Z,27.33
2022-09-07T15:10:23.149Z,27.33
2022-09-07T15:12:57.046Z,27.33
2022-09-07T15:15:40.063Z,27.33
2022-09-07T15:19:03.167Z,27.33
2022-09-07T15:21:37.665Z,27.33
2022-09-07T15:24:07.771Z,27.34
2022-09-07T15:29:29.755Z,27.35
2022-09-07T15:32:03.814Z,27.35
2022-09-07T15:34:34.357Z,27.36
2022-09-07T15:37:04.091Z,27.36
2022-09-07T15:39:52.818Z,27.38
2022-09-07T15:45:11.183Z,27.38
2022-09-07T15:47:47.499Z,27.39
2022-09-07T15:50:19.308Z,27.40
2022-09-07T15:52:47.744Z,27.42
2022-09-07T15:55:17.801Z,27.42
2022-09-07T15:57:54.608Z,27.42
2022-09-07T16:00:28.268Z,27.42
2022-09-07T16:03:12.192Z,27.44
2022-09-07T16:05:45.319Z,27.43
2022-09-07T16:11:18.447Z,27.44
2022-09-07T16:13:48.253Z,27.43
2022-09-07T16:16:17.261Z,27.42
2022-09-07T16:18:47.173Z,27.40
2022-09-07T16:21:16.764Z,27.39
2022-09-07T16:23:48.969Z,27.36
2022-09-07T16:26:19.587Z,27.35
2022-09-07T16:28:50.478Z,27.33
2022-09-07T16:31:30.122Z,27.33
2022-09-07T16:33:59.193Z,27.32
2022-09-07T16:36:27.759Z,27.32
2022-09-07T16:38:58.612Z,27.32
2022-09-07T16:41:32.698Z,27.31
2022-09-07T16:44:02.221Z,27.31
2022-09-07T16:46:37.416Z,27.31
2022-09-07T16:49:08.223Z,27.29
2022-09-07T16:51:37.398Z,27.28
2022-09-07T16:54:06.622Z,27.28
2022-09-07T16:56:38.940Z,27.28
2022-09-07T16:59:10.722Z,27.26
2022-09-07T17:01:39.984Z,27.26
2022-09-07T17:04:11.320Z,27.25
2022-09-07T17:06:41.547Z,27.24
2022-09-07T17:09:10.113Z,27.24
2022-09-07T17:11:38.719Z,27.23
2022-09-07T17:14:07.634Z,27.21
2022-09-07T17:16:39.181Z,27.19
2022-09-07T17:22:00.814Z,27.15
2022-09-07T17:24:31.876Z,27.14
2022-09-07T17:27:01.020Z,27.13
2022-09-07T17:29:31.474Z,27.13
2022-09-07T17:34:48.906Z,27.13
2022-09-07T17:37:17.746Z,27.12
2022-09-07T17:39:46.323Z,27.12
2022-09-07T17:42:14.876Z,27.13
2022-09-07T17:44:43.361Z,27.14
2022-09-07T17:47:12.167Z,27.15
2022-09-07T17:49:40.956Z,27.15
2022-09-07T17:52:09.439Z,27.16
2022-09-07T17:54:37.932Z,27.17
2022-09-07T17:57:06.951Z,27.17
2022-09-07T18:02:23.934Z,27.20
2022-09-07T18:04:52.542Z,27.21
2022-09-07T18:07:21.014Z,27.20
2022-09-07T18:09:49.611Z,27.22
2022-09-07T18:12:18.060Z,27.23
2022-09-07T18:14:46.622Z,27.24
2022-09-07T18:17:15.079Z,27.25
2022-09-07T18:19:43.574Z,27.25
2022-09-07T18:22:12.162Z,27.27
2022-09-07T18:24:40.667Z,27.25
2022-09-07T18:27:09.373Z,27.25
2022-09-07T18:29:38.341Z,27.25
2022-09-07T18:32:09.682Z,27.25
2022-09-07T18:34:41.320Z,27.25
2022-09-07T18:37:12.992Z,27.26
2022-09-07T18:39:41.780Z,27.23
2022-09-07T18:42:11.274Z,27.22
2022-09-07T18:47:29.537Z,27.18
2022-09-07T18:49:58.824Z,27.16
2022-09-07T18:55:17.623Z,27.14
2022-09-07T18:57:46.261Z,27.13
2022-09-07T19:00:16.006Z,27.12
2022-09-07T19:02:44.829Z,27.11
2022-09-07T19:08:04.342Z,27.09
2022-09-07T19:10:38.205Z,27.10
2022-09-07T19:13:06.728Z,27.07
2022-09-07T19:15:37.270Z,27.05
2022-09-07T19:18:07.631Z,27.06
2022-09-07T19:20:36.923Z,27.04
2022-09-07T19:23:06.557Z,27.02
2022-09-07T19:25:34.989Z,27.03
2022-09-07T19:28:03.533Z,27.01
2022-09-07T19:30:32.309Z,27.01
2022-09-07T19:33:04.095Z,26.99
2022-09-07T19:35:36.702Z,26.98
2022-09-07T19:38:05.455Z,26.96
2022-09-07T19:40:33.921Z,26.96
2022-09-07T19:43:02.437Z,26.95
2022-09-07T19:45:31.202Z,26.93
2022-09-07T19:47:59.758Z,26.91
2022-09-07T19:50:28.765Z,26.91
2022-09-07T19:52:57.221Z,26.87
2022-09-07T19:55:25.708Z,26.87
2022-09-07T19:57:54.402Z,26.84
2022-09-07T20:00:24.128Z,26.84
2022-09-07T20:02:53.464Z,26.80
2022-09-07T20:05:22.041Z,26.80
2022-09-07T20:07:50.655Z,26.79
2022-09-07T20:10:19.112Z,26.79
2022-09-07T20:12:47.668Z,26.79
2022-09-07T20:15:16.234Z,26.78
2022-09-07T20:17:44.741Z,26.79
2022-09-07T20:20:13.185Z,26.79
2022-09-07T20:22:41.673Z,26.79
2022-09-07T20:25:13.272Z,26.80
2022-09-07T20:27:42.204Z,26.80
2022-09-07T20:30:11.375Z,26.78
2022-09-07T20:32:39.885Z,26.78
2022-09-07T20:35:08.470Z,26.77
2022-09-07T20:37:37.148Z,26.77
2022-09-07T20:40:07.464Z,26.77
2022-09-07T20:42:36.188Z,26.77
2022-09-07T20:45:04.995Z,26.76
2022-09-07T20:47:33.499Z,26.77
2022-09-07T20:50:01.996Z,26.77
2022-09-07T20:52:30.491Z,26.77
2022-09-07T20:54:58.978Z,26.78
2022-09-07T20:57:27.534Z,26.78
2022-09-07T20:59:56.020Z,26.78
2022-09-07T21:02:24.419Z,26.78
2022-09-07T21:04:53.282Z,26.79
2022-09-07T21:07:21.739Z,26.80
2022-09-07T21:09:50.875Z,26.80
2022-09-07T21:12:19.331Z,26.82
2022-09-07T21:14:47.896Z,26.80
2022-09-07T21:17:16.383Z,26.80
2022-09-07T21:19:44.867Z,26.79
2022-09-07T21:22:13.368Z,26.78
2022-09-07T21:24:41.821Z,26.78
2022-09-07T21:27:10.407Z,26.78
2022-09-07T21:29:38.862Z,26.78
2022-09-07T21:32:07.318Z,26.78
2022-09-07T21:34:35.794Z,26.78
2022-09-07T21:37:04.179Z,26.77
2022-09-07T21:39:32.769Z,26.76
2022-09-07T21:42:01.242Z,26.75
2022-09-07T21:44:29.759Z,26.75
2022-09-07T21:46:58.227Z,26.75
2022-09-07T21:49:26.790Z,26.75
2022-09-07T21:51:55.237Z,26.74
2022-09-07T21:54:23.722Z,26.75
2022-09-07T21:56:54.279Z,26.74
2022-09-07T21:59:22.983Z,26.74
2022-09-07T22:01:51.505Z,26.73
2022-09-07T22:04:20.298Z,26.74
2022-09-07T22:06:48.851Z,26.75
2022-09-07T22:09:17.548Z,26.75
2022-09-07T22:11:46.264Z,26.76
2022-09-07T22:14:16.748Z,26.76
2022-09-07T22:16:45.474Z,26.75
2022-09-07T22:19:14.130Z,26.75
2022-09-07T22:21:42.637Z,26.74
2022-09-07T22:24:13.682Z,26.73
2022-09-07T22:26:42.787Z,26.74
2022-09-07T22:29:13.473Z,26.74
2022-09-07T22:31:42.773Z,26.74
2022-09-07T22:34:12.144Z,26.74
2022-09-07T22:36:43.338Z,26.74
2022-09-07T22:39:17.622Z,26.75
2022-09-07T22:41:48.185Z,26.75
2022-09-07T22:44:19.161Z,26.75
2022-09-07T22:46:49.270Z,26.76
2022-09-07T22:49:18.842Z,26.76
2022-09-07T22:51:47.679Z,26.77
2022-09-07T22:54:16.252Z,26.77
2022-09-07T22:56:45.010Z,26.78
2022-09-07T22:59:14.934Z,26.78
2022-09-07T23:01:43.642Z,26.78
2022-09-07T23:04:14.237Z,26.78
2022-09-07T23:06:44.522Z,26.77
2022-09-07T23:09:15.238Z,26.76
2022-09-07T23:11:44.841Z,26.77
2022-09-07T23:14:16.596Z,26.76
2022-09-07T23:16:46.043Z,26.76
2022-09-07T23:19:16.368Z,26.76
2022-09-07T23:21:45.753Z,26.77
2022-09-07T23:24:18.492Z,26.77
2022-09-07T23:26:47.945Z,26.76
2022-09-07T23:29:17.404Z,26.76
2022-09-07T23:31:48.169Z,26.77
2022-09-07T23:34:17.121Z,26.77
2022-09-07T23:36:47.726Z,26.76
2022-09-07T23:39:16.400Z,26.75
2022-09-07T23:41:44.892Z,26.76
2022-09-07T23:44:13.421Z,26.76
2022-09-07T23:46:41.939Z,26.75
2022-09-07T23:49:10.453Z,26.76
2022-09-07T23:51:38.840Z,26.76
2022-09-07T23:54:07.364Z,26.76
2022-09-07T23:56:38.869Z,26.75
2022-09-07T23:59:07.426Z,26.75
